createdAt,value
2023-03-06T00:01:07.107Z,9.18
2023-03-06T00:03:34.263Z,8.15
2023-03-06T00:06:01.213Z,8.63
2023-03-06T00:08:28.978Z,7.78
2023-03-06T00:10:56.496Z,8.80
2023-03-06T00:13:26.888Z,8.55
2023-03-06T00:15:53.908Z,8.27
2023-03-06T00:18:20.963Z,7.45
2023-03-06T00:20:47.928Z,7.85
2023-03-06T00:23:14.680Z,7.97
2023-03-06T00:25:45.332Z,8.35
2023-03-06T00:28:14.813Z,7.30
2023-03-06T00:30:42.272Z,6.65
2023-03-06T00:33:09.237Z,7.45
2023-03-06T00:35:39.077Z,6.93
2023-03-06T00:38:06.608Z,7.75
2023-03-06T00:40:33.556Z,7.15
2023-03-06T00:43:00.375Z,7.25
2023-03-06T00:45:27.312Z,8.05
2023-03-06T00:47:54.201Z,8.38
2023-03-06T00:50:21.030Z,7.72
2023-03-06T00:52:47.878Z,7.82
2023-03-06T00:55:14.754Z,8.60
2023-03-06T00:57:41.480Z,8.90
2023-03-06T01:00:08.735Z,8.48
2023-03-06T01:02:36.028Z,8.57
2023-03-06T01:05:02.980Z,8.68
2023-03-06T01:07:33.969Z,8.65
2023-03-06T01:10:01.086Z,9.07
2023-03-06T01:12:27.991Z,8.88
2023-03-06T01:14:54.891Z,8.57
2023-03-06T01:17:21.672Z,9.82
2023-03-06T01:19:48.702Z,8.77
2023-03-06T01:22:15.814Z,8.75
2023-03-06T01:24:42.591Z,8.73
2023-03-06T01:27:09.610Z,9.32
2023-03-06T01:29:36.519Z,8.55
2023-03-06T01:32:03.492Z,8.23
2023-03-06T01:34:30.420Z,8.18
2023-03-06T01:36:57.362Z,8.00
2023-03-06T01:39:24.305Z,8.50
2023-03-06T01:41:51.064Z,9.43
2023-03-06T01:44:18.293Z,8.88
2023-03-06T01:46:47.291Z,8.95
2023-03-06T01:49:30.960Z,8.23
2023-03-06T01:52:00.282Z,7.85
2023-03-06T01:54:39.166Z,9.20
2023-03-06T01:57:11.988Z,8.68
2023-03-06T01:59:41.005Z,8.30
2023-03-06T02:02:09.765Z,8.25
2023-03-06T02:04:38.988Z,8.13
2023-03-06T02:07:07.439Z,7.90
2023-03-06T02:09:34.794Z,8.80
2023-03-06T02:12:02.309Z,7.85
2023-03-06T02:14:29.556Z,8.38
2023-03-06T02:16:56.537Z,7.70
2023-03-06T02:19:29.700Z,6.70
2023-03-06T02:21:56.659Z,6.93
2023-03-06T02:24:34.609Z,7.10
2023-03-06T02:27:02.942Z,7.25
2023-03-06T02:29:31.456Z,6.18
2023-03-06T02:32:01.224Z,6.38
2023-03-06T02:34:28.780Z,7.00
2023-03-06T02:36:58.139Z,6.88
2023-03-06T02:39:27.753Z,6.40
2023-03-06T02:41:54.841Z,6.68
2023-03-06T02:44:23.155Z,6.70
2023-03-06T02:46:50.173Z,6.90
2023-03-06T02:49:17.027Z,6.25
2023-03-06T02:51:43.874Z,6.55
2023-03-06T02:54:12.062Z,6.63
2023-03-06T02:56:38.915Z,5.95
2023-03-06T02:59:06.260Z,6.65
2023-03-06T03:01:33.894Z,5.93
2023-03-06T03:04:00.713Z,6.90
2023-03-06T03:06:28.227Z,6.70
2023-03-06T03:08:55.252Z,6.32
2023-03-06T03:11:22.823Z,7.78
2023-03-06T03:13:49.676Z,7.35
2023-03-06T03:16:21.755Z,7.75
2023-03-06T03:18:50.329Z,7.88
2023-03-06T03:21:20.057Z,7.63
2023-03-06T03:23:48.323Z,8.45
2023-03-06T03:26:17.275Z,8.95
2023-03-06T03:28:48.880Z,7.70
2023-03-06T03:31:18.463Z,6.85
2023-03-06T03:33:45.488Z,7.15
2023-03-06T03:36:12.931Z,6.80
2023-03-06T03:38:42.713Z,6.97
2023-03-06T03:41:09.998Z,6.63
2023-03-06T03:43:36.875Z,7.43
2023-03-06T03:46:03.981Z,6.47
2023-03-06T03:48:31.036Z,6.85
2023-03-06T03:51:05.251Z,6.32
2023-03-06T03:53:33.552Z,6.05
2023-03-06T03:56:00.767Z,6.25
2023-03-06T03:58:28.473Z,6.00
2023-03-06T04:00:55.504Z,6.50
2023-03-06T04:03:22.330Z,6.72
2023-03-06T04:05:49.346Z,6.28
2023-03-06T04:08:17.028Z,6.50
2023-03-06T04:10:46.108Z,6.07
2023-03-06T04:13:15.285Z,6.43
2023-03-06T04:15:45.207Z,6.05
2023-03-06T04:18:12.321Z,6.07
2023-03-06T04:20:39.733Z,6.38
2023-03-06T04:23:06.887Z,5.93
2023-03-06T04:25:33.742Z,6.05
2023-03-06T04:28:02.505Z,5.82
2023-03-06T04:30:30.035Z,5.32
2023-03-06T04:32:57.533Z,5.22
2023-03-06T04:35:25.135Z,5.22
2023-03-06T04:37:58.393Z,6.15
2023-03-06T04:40:28.730Z,5.53
2023-03-06T04:42:56.693Z,7.07
2023-03-06T04:45:23.796Z,6.25
2023-03-06T04:47:50.833Z,6.03
2023-03-06T04:50:18.292Z,6.15
2023-03-06T04:52:45.285Z,6.20
2023-03-06T04:55:13.555Z,5.88
2023-03-06T04:57:42.854Z,5.85
2023-03-06T05:00:13.274Z,5.68
2023-03-06T05:02:41.664Z,6.18
2023-03-06T05:05:08.660Z,5.15
2023-03-06T05:07:35.445Z,5.60
2023-03-06T05:10:02.392Z,5.43
2023-03-06T05:12:29.459Z,5.20
2023-03-06T05:14:56.433Z,5.85
2023-03-06T05:17:23.314Z,4.80
2023-03-06T05:19:50.046Z,5.82
2023-03-06T05:22:16.959Z,5.13
2023-03-06T05:24:43.859Z,4.70
2023-03-06T05:27:11.206Z,5.70
2023-03-06T05:29:38.324Z,5.10
2023-03-06T05:32:05.377Z,5.00
2023-03-06T05:34:32.362Z,5.22
2023-03-06T05:37:00.708Z,5.07
2023-03-06T05:39:27.889Z,5.20
2023-03-06T05:41:54.959Z,5.53
2023-03-06T05:44:24.057Z,5.20
2023-03-06T05:46:50.927Z,5.53
2023-03-06T05:49:17.733Z,4.88
2023-03-06T05:51:44.620Z,5.72
2023-03-06T05:54:11.555Z,5.45
2023-03-06T05:56:38.480Z,4.63
2023-03-06T05:59:05.346Z,3.97
2023-03-06T06:01:32.559Z,4.25
2023-03-06T06:03:59.320Z,4.63
2023-03-06T06:06:26.180Z,4.10
2023-03-06T06:08:52.942Z,3.65
2023-03-06T06:11:20.839Z,3.88
2023-03-06T06:13:48.226Z,3.92
2023-03-06T06:16:16.490Z,4.10
2023-03-06T06:18:43.565Z,4.00
2023-03-06T06:21:11.798Z,4.20
2023-03-06T06:23:38.681Z,4.60
2023-03-06T06:26:06.531Z,5.15
2023-03-06T06:28:33.539Z,5.38
2023-03-06T06:31:00.512Z,5.30
2023-03-06T06:33:27.510Z,5.85
2023-03-06T06:35:54.538Z,6.30
2023-03-06T06:38:21.437Z,6.10
2023-03-06T06:41:18.093Z,6.00
2023-03-06T06:43:36.294Z,6.55
2023-03-06T06:46:28.280Z,6.30
2023-03-06T06:53:43.270Z,5.75
2023-03-06T06:56:10.937Z,6.03
2023-03-06T06:58:37.760Z,6.93
2023-03-06T07:01:08.356Z,7.30
2023-03-06T07:03:35.378Z,6.63
2023-03-06T07:06:02.416Z,7.75
2023-03-06T07:08:29.112Z,7.40
2023-03-06T07:10:56.011Z,6.82
2023-03-06T07:13:22.824Z,8.25
2023-03-06T07:15:49.756Z,7.28
2023-03-06T07:18:16.609Z,8.27
2023-03-06T07:20:43.402Z,8.00
2023-03-06T07:23:13.548Z,7.82
2023-03-06T07:25:40.772Z,8.43
2023-03-06T07:28:07.977Z,8.07
2023-03-06T07:30:34.917Z,7.72
2023-03-06T07:33:01.970Z,8.23
2023-03-06T07:35:29.049Z,7.63
2023-03-06T07:37:55.974Z,7.97
2023-03-06T07:40:23.364Z,7.97
2023-03-06T07:42:52.713Z,8.05
2023-03-06T07:45:24.515Z,7.65
2023-03-06T07:47:52.174Z,7.78
2023-03-06T07:50:19.403Z,8.27
2023-03-06T07:52:46.307Z,7.45
2023-03-06T07:55:13.251Z,7.10
2023-03-06T07:57:40.803Z,7.18
2023-03-06T08:00:09.972Z,7.78
2023-03-06T08:02:43.287Z,6.75
2023-03-06T08:05:12.452Z,7.20
2023-03-06T08:07:39.509Z,7.53
2023-03-06T08:10:06.623Z,7.22
2023-03-06T08:12:33.604Z,7.90
2023-03-06T08:15:00.443Z,6.57
2023-03-06T08:17:27.258Z,6.95
2023-03-06T08:19:54.230Z,7.22
2023-03-06T08:22:21.075Z,6.82
2023-03-06T08:24:47.860Z,6.00
2023-03-06T08:27:14.792Z,4.88
2023-03-06T08:29:41.637Z,3.17
2023-03-06T08:32:11.250Z,2.80
2023-03-06T08:34:40.004Z,4.25
2023-03-06T08:37:06.852Z,4.28
2023-03-06T08:39:33.781Z,2.85
2023-03-06T08:42:00.485Z,2.20
2023-03-06T08:44:27.290Z,2.90
2023-03-06T08:46:54.382Z,2.42
2023-03-06T08:49:21.464Z,3.00
2023-03-06T08:51:48.304Z,2.38
2023-03-06T08:54:15.191Z,1.90
2023-03-06T08:56:42.355Z,2.72
2023-03-06T08:59:11.047Z,2.53
2023-03-06T09:01:38.417Z,2.55
2023-03-06T09:04:06.874Z,3.17
2023-03-06T09:06:35.835Z,2.60
2023-03-06T09:09:03.370Z,2.72
2023-03-06T09:11:30.405Z,2.75
2023-03-06T09:13:57.410Z,3.03
2023-03-06T09:16:24.295Z,2.80
2023-03-06T09:18:53.151Z,2.60
2023-03-06T09:21:20.847Z,2.50
2023-03-06T09:23:48.038Z,2.25
2023-03-06T09:26:15.001Z,2.63
2023-03-06T09:28:41.954Z,2.55
2023-03-06T09:31:13.230Z,2.60
2023-03-06T09:33:40.826Z,2.47
2023-03-06T09:36:08.389Z,2.42
2023-03-06T09:38:35.281Z,2.35
2023-03-06T09:41:11.729Z,2.70
2023-03-06T09:43:40.481Z,2.63
2023-03-06T09:46:19.696Z,2.42
2023-03-06T09:48:49.919Z,1.67
2023-03-06T09:51:17.875Z,2.15
2023-03-06T09:53:47.443Z,1.60
2023-03-06T09:56:20.855Z,2.30
2023-03-06T09:58:53.812Z,2.20
2023-03-06T10:01:31.646Z,2.17
2023-03-06T10:04:13.890Z,2.45
2023-03-06T10:06:47.386Z,2.10
2023-03-06T10:09:23.232Z,2.75
2023-03-06T10:12:00.212Z,2.53
2023-03-06T10:14:27.903Z,2.35
2023-03-06T10:16:55.182Z,2.17
2023-03-06T10:19:22.234Z,2.40
2023-03-06T10:21:49.669Z,2.15
2023-03-06T10:24:28.814Z,2.00
2023-03-06T10:27:00.463Z,2.05
2023-03-06T10:29:33.166Z,1.90
2023-03-06T10:32:46.293Z,2.13
2023-03-06T10:35:17.833Z,2.60
2023-03-06T10:37:44.765Z,2.65
2023-03-06T10:40:22.005Z,2.50
2023-03-06T10:42:52.190Z,1.92
2023-03-06T10:45:25.476Z,3.38
2023-03-06T10:48:08.644Z,4.80
2023-03-06T10:50:35.566Z,5.43
2023-03-06T10:53:05.047Z,6.28
2023-03-06T10:55:33.398Z,5.55
2023-03-06T10:58:38.571Z,5.60
2023-03-06T11:01:07.288Z,5.80
2023-03-06T11:03:35.364Z,5.18
2023-03-06T11:06:02.652Z,4.70
2023-03-06T11:08:30.038Z,5.55
2023-03-06T11:11:01.911Z,4.13
2023-03-06T11:13:30.716Z,4.00
2023-03-06T11:16:02.478Z,3.67
2023-03-06T11:18:35.287Z,4.10
2023-03-06T11:21:04.216Z,3.45
2023-03-06T11:23:36.770Z,3.25
2023-03-06T11:26:15.452Z,2.72
2023-03-06T11:28:44.219Z,3.90
2023-03-06T11:31:16.746Z,3.72
2023-03-06T11:34:05.114Z,3.88
2023-03-06T11:36:48.391Z,4.00
2023-03-06T11:39:35.052Z,4.38
2023-03-06T11:42:25.154Z,4.22
2023-03-06T11:44:52.085Z,4.93
2023-03-06T11:47:32.112Z,4.80
2023-03-06T11:50:05.077Z,3.88
2023-03-06T11:52:52.965Z,4.18
2023-03-06T11:55:38.966Z,5.03
2023-03-06T12:00:51.386Z,4.43
2023-03-06T12:03:31.430Z,5.55
2023-03-06T12:06:04.332Z,6.05
2023-03-06T12:08:31.268Z,4.68
2023-03-06T12:11:02.459Z,4.80
2023-03-06T12:13:32.167Z,5.05
2023-03-06T12:16:12.359Z,5.25
2023-03-06T12:18:42.484Z,4.85
2023-03-06T12:21:28.176Z,4.90
2023-03-06T12:24:01.130Z,4.80
2023-03-06T12:26:43.025Z,4.53
2023-03-06T12:29:09.829Z,4.53
2023-03-06T12:31:36.689Z,4.88
2023-03-06T12:34:23.766Z,4.82
2023-03-06T12:37:02.695Z,4.88
2023-03-06T12:39:42.029Z,4.97
2023-03-06T12:42:17.796Z,4.65
2023-03-06T12:45:09.765Z,4.72
2023-03-06T12:47:41.853Z,5.40
2023-03-06T12:50:17.780Z,4.75
2023-03-06T12:52:46.148Z,5.45
2023-03-06T12:55:14.850Z,4.90
2023-03-06T12:57:42.185Z,5.10
2023-03-06T13:00:29.167Z,5.30
2023-03-06T13:03:02.128Z,4.47
2023-03-06T13:05:42.198Z,4.55
2023-03-06T13:08:21.038Z,4.30
2023-03-06T13:11:03.410Z,4.53
2023-03-06T13:13:41.651Z,4.50
2023-03-06T13:16:13.397Z,3.88
2023-03-06T13:18:43.732Z,3.92
2023-03-06T13:21:29.727Z,4.90
2023-03-06T13:24:04.054Z,4.95
2023-03-06T13:26:31.020Z,5.10
2023-03-06T13:28:58.206Z,5.25
2023-03-06T13:31:28.869Z,5.90
2023-03-06T13:34:00.185Z,4.93
2023-03-06T13:36:28.443Z,4.72
2023-03-06T13:38:55.237Z,3.95
2023-03-06T13:41:21.996Z,5.47
2023-03-06T13:43:49.636Z,5.20
2023-03-06T13:46:26.243Z,5.57
2023-03-06T13:49:08.053Z,5.63
2023-03-06T13:51:43.202Z,6.25
2023-03-06T13:54:19.168Z,6.85
2023-03-06T13:56:51.884Z,6.25
2023-03-06T13:59:18.628Z,7.05
2023-03-06T14:02:04.985Z,6.63
2023-03-06T14:04:45.760Z,5.65
2023-03-06T14:07:22.586Z,5.40
2023-03-06T14:09:58.895Z,4.78
2023-03-06T14:12:29.315Z,5.35
2023-03-06T14:14:57.955Z,4.63
2023-03-06T14:17:27.805Z,5.25
2023-03-06T14:19:58.127Z,4.93
2023-03-06T14:22:25.624Z,5.40
2023-03-06T14:24:57.565Z,5.18
2023-03-06T14:28:12.573Z,5.32
2023-03-06T14:30:48.218Z,5.68
2023-03-06T14:33:23.405Z,5.30
2023-03-06T14:35:51.763Z,4.87
2023-03-06T14:38:18.724Z,5.47
2023-03-06T14:40:45.686Z,5.50
2023-03-06T14:43:21.526Z,5.50
2023-03-06T14:45:49.392Z,6.22
2023-03-06T14:48:16.435Z,6.38
2023-03-06T14:50:47.296Z,5.50
2023-03-06T14:53:16.234Z,6.50
2023-03-06T14:56:00.440Z,6.72
2023-03-06T14:58:42.446Z,6.43
2023-03-06T15:01:11.030Z,7.45
2023-03-06T15:03:54.909Z,6.93
2023-03-06T15:06:23.871Z,6.97
2023-03-06T15:09:02.286Z,5.65
2023-03-06T15:11:48.038Z,7.63
2023-03-06T15:14:18.339Z,8.47
2023-03-06T15:16:45.235Z,8.13
2023-03-06T15:19:19.732Z,8.90
2023-03-06T15:21:47.326Z,8.90
2023-03-06T15:24:33.251Z,9.48
2023-03-06T15:27:01.495Z,9.95
2023-03-06T15:29:28.399Z,10.07
2023-03-06T15:32:13.089Z,8.63
2023-03-06T15:34:40.231Z,9.82
2023-03-06T15:37:26.049Z,9.73
2023-03-06T15:40:09.666Z,8.60
2023-03-06T15:42:36.782Z,9.70
2023-03-06T15:45:15.859Z,10.38
2023-03-06T15:47:43.414Z,9.77
2023-03-06T15:50:19.041Z,11.65
2023-03-06T15:52:46.429Z,11.27
2023-03-06T15:55:13.901Z,11.32
2023-03-06T15:57:54.345Z,11.68
2023-03-06T16:00:28.331Z,10.43
2023-03-06T16:02:58.699Z,10.05
2023-03-06T16:05:26.207Z,11.05
2023-03-06T16:07:53.183Z,11.68
2023-03-06T16:10:23.478Z,11.20
2023-03-06T16:13:04.085Z,11.27
2023-03-06T16:15:33.178Z,11.73
2023-03-06T16:18:03.281Z,9.80
2023-03-06T16:20:30.196Z,10.30
2023-03-06T16:22:57.484Z,9.98
2023-03-06T16:25:26.006Z,9.60
2023-03-06T16:28:00.377Z,9.80
2023-03-06T16:30:28.406Z,9.20
2023-03-06T16:32:55.291Z,9.52
2023-03-06T16:35:22.359Z,8.93
2023-03-06T16:37:49.517Z,8.68
2023-03-06T16:40:19.453Z,7.30
2023-03-06T16:42:46.745Z,7.75
2023-03-06T16:45:14.141Z,8.30
2023-03-06T16:47:42.121Z,8.27
2023-03-06T16:50:29.157Z,9.05
2023-03-06T16:52:57.024Z,8.82
2023-03-06T16:55:25.075Z,10.32
2023-03-06T16:57:52.045Z,11.68
2023-03-06T17:00:19.834Z,10.60
2023-03-06T17:02:50.232Z,10.20
2023-03-06T17:05:17.325Z,11.48
2023-03-06T17:07:44.212Z,11.15
2023-03-06T17:10:12.923Z,10.38
2023-03-06T17:12:39.925Z,10.50
2023-03-06T17:15:07.536Z,10.32
2023-03-06T17:17:34.666Z,10.10
2023-03-06T17:20:02.251Z,10.25
2023-03-06T17:22:29.057Z,10.20
2023-03-06T17:24:56.138Z,10.85
2023-03-06T17:27:23.103Z,10.82
2023-03-06T17:29:49.985Z,9.05
2023-03-06T17:32:16.783Z,10.00
2023-03-06T17:34:43.665Z,10.80
2023-03-06T17:37:10.973Z,8.18
2023-03-06T17:39:38.901Z,10.93
2023-03-06T17:42:06.851Z,11.07
2023-03-06T17:44:34.561Z,10.75
2023-03-06T17:47:02.078Z,11.00
2023-03-06T17:49:29.014Z,10.07
2023-03-06T17:51:59.942Z,10.65
2023-03-06T17:54:27.145Z,9.93
2023-03-06T17:56:54.059Z,10.45
2023-03-06T17:59:21.028Z,10.60
2023-03-06T18:01:47.984Z,11.63
2023-03-06T18:04:15.208Z,11.93
2023-03-06T18:06:42.032Z,11.15
2023-03-06T18:09:10.484Z,10.90
2023-03-06T18:11:37.572Z,12.07
2023-03-06T18:14:05.605Z,11.23
2023-03-06T18:16:33.117Z,11.75
2023-03-06T18:19:02.236Z,13.38
2023-03-06T18:21:29.154Z,12.60
2023-03-06T18:23:57.650Z,12.63
2023-03-06T18:26:28.587Z,12.32
2023-03-06T18:28:56.837Z,12.10
2023-03-06T18:31:27.795Z,13.00
2023-03-06T18:33:56.073Z,12.93
2023-03-06T18:36:24.644Z,12.10
2023-03-06T18:38:51.735Z,12.27
2023-03-06T18:41:19.121Z,14.32
2023-03-06T18:43:50.706Z,13.65
2023-03-06T18:46:17.571Z,13.75
2023-03-06T18:48:44.342Z,12.93
2023-03-06T18:51:14.020Z,13.80
2023-03-06T18:53:41.474Z,14.30
2023-03-06T18:56:10.751Z,13.18
2023-03-06T18:58:37.645Z,13.57
2023-03-06T19:01:07.708Z,15.07
2023-03-06T19:03:35.156Z,14.20
2023-03-06T19:06:09.882Z,13.70
2023-03-06T19:08:37.995Z,13.70
2023-03-06T19:11:09.828Z,15.43
2023-03-06T19:13:36.704Z,15.00
2023-03-06T19:16:03.646Z,14.98
2023-03-06T19:18:30.752Z,15.38
2023-03-06T19:21:11.039Z,14.30
2023-03-06T19:23:38.098Z,15.15
2023-03-06T19:26:05.214Z,14.40
2023-03-06T19:28:32.235Z,14.85
2023-03-06T19:30:59.220Z,14.40
2023-03-06T19:33:26.024Z,14.93
2023-03-06T19:35:53.228Z,16.10
2023-03-06T19:38:19.975Z,16.17
2023-03-06T19:40:50.211Z,16.00
2023-03-06T19:43:17.166Z,18.30
2023-03-06T19:45:44.581Z,15.90
2023-03-06T19:48:12.500Z,15.90
2023-03-06T19:50:39.869Z,16.52
2023-03-06T19:53:07.826Z,17.38
2023-03-06T19:55:34.920Z,16.70
2023-03-06T19:58:01.766Z,17.20
2023-03-06T20:00:29.131Z,16.92
2023-03-06T20:02:56.833Z,18.38
2023-03-06T20:05:23.584Z,17.52
2023-03-06T20:07:51.009Z,15.82
2023-03-06T20:10:18.181Z,18.27
2023-03-06T20:12:45.121Z,19.08
2023-03-06T20:15:12.016Z,18.85
2023-03-06T20:17:40.764Z,19.20
2023-03-06T20:20:09.704Z,18.52
2023-03-06T20:22:36.793Z,19.05
2023-03-06T20:25:03.930Z,19.00
2023-03-06T20:27:30.673Z,18.15
2023-03-06T20:29:57.428Z,18.20
2023-03-06T20:32:24.511Z,17.95
2023-03-06T20:34:51.414Z,18.00
2023-03-06T20:37:18.496Z,14.80
2023-03-06T20:39:45.458Z,14.60
2023-03-06T20:42:12.181Z,16.35
2023-03-06T20:44:39.224Z,15.02
2023-03-06T20:47:06.314Z,16.27
2023-03-06T20:49:33.612Z,16.52
2023-03-06T20:52:00.756Z,15.80
2023-03-06T20:54:27.586Z,15.07
2023-03-06T20:56:54.600Z,14.73
2023-03-06T20:59:21.699Z,13.93
2023-03-06T21:01:48.596Z,13.63
2023-03-06T21:04:16.064Z,10.73
2023-03-06T21:06:46.454Z,9.50
2023-03-06T21:09:14.650Z,9.60
2023-03-06T21:11:42.598Z,8.77
2023-03-06T21:14:09.790Z,6.10
2023-03-06T21:16:36.631Z,4.15
2023-03-06T21:19:03.532Z,3.13
2023-03-06T21:21:31.431Z,2.60
2023-03-06T21:23:58.599Z,2.40
2023-03-06T21:26:26.733Z,2.40
2023-03-06T21:28:54.276Z,2.45
2023-03-06T21:31:21.647Z,2.90
2023-03-06T21:33:49.206Z,2.65
2023-03-06T21:36:16.347Z,3.15
2023-03-06T21:38:43.144Z,3.65
2023-03-06T21:41:11.042Z,3.30
2023-03-06T21:43:37.916Z,3.35
2023-03-06T21:46:04.947Z,4.15
2023-03-06T21:48:31.855Z,3.75
2023-03-06T21:51:08.843Z,4.97
2023-03-06T21:53:38.539Z,4.45
2023-03-06T21:56:05.921Z,4.47
2023-03-06T21:58:32.952Z,3.78
2023-03-06T22:01:00.445Z,3.72
2023-03-06T22:03:28.626Z,3.95
2023-03-06T22:05:56.722Z,3.15
2023-03-06T22:08:25.146Z,2.88
2023-03-06T22:10:52.120Z,3.05
2023-03-06T22:13:19.347Z,3.08
2023-03-06T22:15:49.721Z,2.88
2023-03-06T22:18:16.571Z,3.15
2023-03-06T22:20:43.683Z,3.05
2023-03-06T22:23:11.121Z,3.15
2023-03-06T22:25:38.010Z,3.00
2023-03-06T22:28:05.077Z,3.20
2023-03-06T22:30:31.820Z,3.08
2023-03-06T22:32:58.763Z,2.97
2023-03-06T22:35:25.749Z,2.38
2023-03-06T22:37:52.649Z,2.95
2023-03-06T22:40:19.592Z,3.30
2023-03-06T22:42:46.414Z,2.13
2023-03-06T22:45:13.175Z,3.22
2023-03-06T22:47:40.050Z,2.95
2023-03-06T22:50:07.144Z,2.88
2023-03-06T22:52:34.134Z,3.75
2023-03-06T22:55:00.943Z,3.65
2023-03-06T22:57:27.824Z,4.38
2023-03-06T22:59:54.681Z,4.00
2023-03-06T23:02:21.567Z,3.72
2023-03-06T23:04:52.310Z,3.50
2023-03-06T23:07:22.275Z,3.20
2023-03-06T23:09:49.920Z,3.17
2023-03-06T23:12:35.047Z,2.33
2023-03-06T23:15:20.330Z,2.30
2023-03-06T23:18:06.530Z,2.45
2023-03-06T23:20:51.694Z,2.20
2023-03-06T23:23:37.676Z,1.98
2023-03-06T23:26:06.351Z,1.80
2023-03-06T23:28:33.361Z,2.00
2023-03-06T23:31:00.323Z,2.10
2023-03-06T23:33:27.219Z,2.20
2023-03-06T23:35:54.119Z,2.30
2023-03-06T23:38:20.888Z,3.05
2023-03-06T23:40:47.982Z,3.50
2023-03-06T23:43:14.914Z,2.88
2023-03-06T23:45:41.738Z,3.45
2023-03-06T23:48:08.592Z,3.88
2023-03-06T23:50:35.709Z,3.03
2023-03-06T23:53:02.517Z,3.60
2023-03-06T23:55:29.346Z,3.05
2023-03-06T23:57:56.096Z,3.65
